createdAt,value
2023-05-23T00:01:07.345Z,94503.94
2023-05-23T00:03:35.089Z,94502.47
2023-05-23T00:06:02.392Z,94510.28
2023-05-23T00:08:29.174Z,94504.81
2023-05-23T00:10:55.905Z,94504.75
2023-05-23T00:13:22.984Z,94505.91
2023-05-23T00:15:49.936Z,94504.16
2023-05-23T00:18:17.082Z,94509.28
2023-05-23T00:20:45.620Z,94515.41
2023-05-23T00:23:19.333Z,94514.69
2023-05-23T00:25:52.820Z,94507.41
2023-05-23T00:28:20.935Z,94507.69
2023-05-23T00:30:51.694Z,94508.22
2023-05-23T00:33:22.134Z,94513.91
2023-05-23T00:35:49.322Z,94513.06
2023-05-23T00:38:17.302Z,94513.13
2023-05-23T00:40:44.134Z,94512.72
2023-05-23T00:43:11.069Z,94512.19
2023-05-23T00:45:38.155Z,94516.41
2023-05-23T00:48:06.519Z,94523.94
2023-05-23T00:50:33.967Z,94526.97
2023-05-23T00:53:01.851Z,94526.63
2023-05-23T00:55:29.040Z,94523.25
2023-05-23T00:57:57.367Z,94532.97
2023-05-23T01:00:26.124Z,94529.81
2023-05-23T01:02:53.621Z,94533.72
2023-05-23T01:05:22.677Z,94528.94
2023-05-23T01:07:51.116Z,94528.72
2023-05-23T01:10:21.541Z,94537.81
2023-05-23T01:13:05.928Z,94530.41
2023-05-23T01:15:54.510Z,94531.22
2023-05-23T01:18:31.003Z,94522.25
2023-05-23T01:21:06.680Z,94526.13
2023-05-23T01:23:47.563Z,94533.66
2023-05-23T01:26:32.857Z,94535.72
2023-05-23T01:29:13.812Z,94535.16
2023-05-23T01:31:46.359Z,94529.34
2023-05-23T01:34:14.389Z,94536.53
2023-05-23T01:36:43.768Z,94530.44
2023-05-23T01:39:11.426Z,94531.53
2023-05-23T01:41:38.523Z,94532.47
2023-05-23T01:44:06.189Z,94532.47
2023-05-23T01:46:35.886Z,94532.47
2023-05-23T01:49:04.678Z,94535.16
2023-05-23T01:51:34.561Z,94535.56
2023-05-23T01:54:02.536Z,94543.31
2023-05-23T01:56:30.538Z,94535.63
2023-05-23T01:58:57.905Z,94546.19
2023-05-23T02:01:24.801Z,94545.50
2023-05-23T02:03:51.625Z,94539.19
2023-05-23T02:06:18.422Z,94546.72
2023-05-23T02:08:46.820Z,94540.59
2023-05-23T02:11:13.597Z,94543.50
2023-05-23T02:13:40.535Z,94539.72
2023-05-23T02:16:08.101Z,94555.16
2023-05-23T02:18:38.240Z,94555.13
2023-05-23T02:21:06.059Z,94554.56
2023-05-23T02:23:33.043Z,94555.63
2023-05-23T02:25:59.782Z,94561.75
2023-05-23T02:28:26.530Z,94559.53
2023-05-23T02:30:53.317Z,94559.97
2023-05-23T02:33:20.175Z,94557.44
2023-05-23T02:35:47.912Z,94566.59
2023-05-23T02:38:15.788Z,94569.75
2023-05-23T02:40:42.593Z,94571.41
2023-05-23T02:43:09.312Z,94572.09
2023-05-23T02:45:36.388Z,94564.38
2023-05-23T02:48:04.314Z,94561.47
2023-05-23T02:50:31.627Z,94577.81
2023-05-23T02:52:58.514Z,94569.47
2023-05-23T02:55:25.373Z,94571.56
2023-05-23T02:57:52.439Z,94572.03
2023-05-23T03:00:19.539Z,94568.13
2023-05-23T03:02:50.929Z,94565.31
2023-05-23T03:05:18.467Z,94572.00
2023-05-23T03:07:45.914Z,94573.75
2023-05-23T03:10:12.938Z,94568.91
2023-05-23T03:12:39.732Z,94575.50
2023-05-23T03:15:07.900Z,94572.63
2023-05-23T03:17:37.184Z,94574.66
2023-05-23T03:20:04.970Z,94564.56
2023-05-23T03:22:32.281Z,94582.22
2023-05-23T03:24:59.045Z,94575.97
2023-05-23T03:27:26.842Z,94574.25
2023-05-23T03:29:53.646Z,94570.03
2023-05-23T03:32:20.549Z,94566.56
2023-05-23T03:34:47.431Z,94571.41
2023-05-23T03:37:14.221Z,94577.50
2023-05-23T03:39:41.165Z,94582.19
2023-05-23T03:42:08.126Z,94583.72
2023-05-23T03:44:34.952Z,94578.13
2023-05-23T03:47:04.011Z,94582.47
2023-05-23T03:49:30.816Z,94582.81
2023-05-23T03:51:57.725Z,94588.88
2023-05-23T03:54:24.467Z,94587.97
2023-05-23T03:56:52.240Z,94596.53
2023-05-23T03:59:19.633Z,94593.72
2023-05-23T04:01:46.555Z,94588.31
2023-05-23T04:04:13.660Z,94591.22
2023-05-23T04:06:40.606Z,94587.28
2023-05-23T04:09:07.430Z,94592.06
2023-05-23T04:11:38.455Z,94596.13
2023-05-23T04:14:05.327Z,94594.94
2023-05-23T04:16:33.456Z,94598.63
2023-05-23T04:19:05.497Z,94607.44
2023-05-23T04:21:32.811Z,94609.28
2023-05-23T04:24:08.264Z,94603.69
2023-05-23T04:26:36.574Z,94615.69
2023-05-23T04:29:06.432Z,94614.97
2023-05-23T04:31:36.545Z,94611.19
2023-05-23T04:34:04.199Z,94613.53
2023-05-23T04:36:38.244Z,94618.75
2023-05-23T04:39:06.228Z,94618.25
2023-05-23T04:41:38.753Z,94629.63
2023-05-23T04:44:18.282Z,94619.81
2023-05-23T04:47:09.727Z,94624.34
2023-05-23T04:50:09.917Z,94621.56
2023-05-23T04:52:37.165Z,94629.09
2023-05-23T04:55:04.801Z,94622.25
2023-05-23T04:57:31.713Z,94618.63
2023-05-23T04:59:59.457Z,94627.25
2023-05-23T05:02:27.531Z,94619.25
2023-05-23T05:04:54.394Z,94625.94
2023-05-23T05:07:21.717Z,94623.34
2023-05-23T05:09:48.792Z,94628.00
2023-05-23T05:12:16.919Z,94626.50
2023-05-23T05:14:43.698Z,94609.72
2023-05-23T05:17:10.686Z,94616.44
2023-05-23T05:19:50.458Z,94626.13
2023-05-23T05:22:18.634Z,94620.72
2023-05-23T05:24:45.538Z,94620.97
2023-05-23T05:27:12.631Z,94620.41
2023-05-23T05:29:39.395Z,94610.72
2023-05-23T05:32:09.178Z,94611.59
2023-05-23T05:34:38.080Z,94610.91
2023-05-23T05:37:06.138Z,94608.78
2023-05-23T05:39:33.199Z,94614.66
2023-05-23T05:42:03.818Z,94613.09
2023-05-23T05:44:30.976Z,94617.16
2023-05-23T05:46:58.084Z,94613.88
2023-05-23T05:49:25.081Z,94618.97
2023-05-23T05:51:51.965Z,94616.06
2023-05-23T05:54:19.447Z,94611.59
2023-05-23T05:56:47.362Z,94605.84
2023-05-23T05:59:14.689Z,94603.00
2023-05-23T06:01:41.655Z,94611.66
2023-05-23T06:04:08.800Z,94598.00
2023-05-23T06:06:35.712Z,94608.22
2023-05-23T06:09:02.776Z,94610.22
2023-05-23T06:11:29.808Z,94620.16
2023-05-23T06:13:56.546Z,94613.31
2023-05-23T06:16:24.073Z,94612.66
2023-05-23T06:18:50.897Z,94614.00
2023-05-23T06:21:18.207Z,94614.59
2023-05-23T06:23:49.112Z,94615.91
2023-05-23T06:26:16.007Z,94622.53
2023-05-23T06:28:42.851Z,94625.31
2023-05-23T06:31:12.658Z,94633.03
2023-05-23T06:33:39.510Z,94626.97
2023-05-23T06:36:06.623Z,94633.97
2023-05-23T06:38:36.179Z,94630.13
2023-05-23T06:41:04.052Z,94632.56
2023-05-23T06:43:32.043Z,94641.38
2023-05-23T06:46:21.588Z,94642.44
2023-05-23T06:48:50.709Z,94642.84
2023-05-23T06:51:21.231Z,94645.06
2023-05-23T06:53:48.595Z,94630.19
2023-05-23T06:56:16.134Z,94624.78
2023-05-23T06:58:54.779Z,94620.34
2023-05-23T07:01:21.940Z,94622.75
2023-05-23T07:03:50.848Z,94622.19
2023-05-23T07:06:18.240Z,94623.91
2023-05-23T07:08:46.792Z,94622.50
2023-05-23T07:11:14.832Z,94617.75
2023-05-23T07:13:44.498Z,94622.44
2023-05-23T07:16:19.623Z,94623.91
2023-05-23T07:19:02.071Z,94625.44
2023-05-23T07:21:29.936Z,94617.41
2023-05-23T07:23:56.714Z,94624.41
2023-05-23T07:26:23.670Z,94616.53
2023-05-23T07:28:54.577Z,94628.81
2023-05-23T07:31:22.600Z,94623.53
2023-05-23T07:33:58.604Z,94619.22
2023-05-23T07:36:34.201Z,94618.47
2023-05-23T07:39:02.301Z,94621.59
2023-05-23T07:41:29.225Z,94624.25
2023-05-23T07:43:56.046Z,94619.66
2023-05-23T07:46:23.198Z,94623.16
2023-05-23T07:48:50.036Z,94633.31
2023-05-23T07:51:18.955Z,94631.53
2023-05-23T07:53:45.767Z,94620.84
2023-05-23T07:56:13.403Z,94619.31
2023-05-23T07:58:41.894Z,94631.28
2023-05-23T08:01:09.042Z,94628.91
2023-05-23T08:04:02.626Z,94641.97
2023-05-23T08:06:52.116Z,94639.47
2023-05-23T08:09:38.173Z,94643.25
2023-05-23T08:12:06.168Z,94655.56
2023-05-23T08:14:46.290Z,94650.38
2023-05-23T08:17:24.856Z,94651.28
2023-05-23T08:19:53.148Z,94646.56
2023-05-23T08:22:20.173Z,94652.66
2023-05-23T08:24:46.971Z,94656.66
2023-05-23T08:27:14.106Z,94660.50
2023-05-23T08:29:42.226Z,94655.19
2023-05-23T08:32:09.618Z,94654.41
2023-05-23T08:34:36.629Z,94656.41
2023-05-23T08:37:03.833Z,94648.44
2023-05-23T08:39:31.021Z,94658.50
2023-05-23T08:42:16.576Z,94658.81
2023-05-23T08:44:43.847Z,94663.53
2023-05-23T08:47:12.853Z,94667.66
2023-05-23T08:50:02.638Z,94667.44
2023-05-23T08:52:33.621Z,94657.94
2023-05-23T08:55:04.303Z,94655.06
2023-05-23T08:57:32.032Z,94652.69
2023-05-23T09:00:14.568Z,94654.00
2023-05-23T09:02:44.140Z,94646.47
2023-05-23T09:05:23.740Z,94649.91
2023-05-23T09:07:55.136Z,94650.91
2023-05-23T09:10:22.716Z,94657.50
2023-05-23T09:12:50.677Z,94661.81
2023-05-23T09:15:17.680Z,94665.63
2023-05-23T09:17:45.811Z,94663.56
2023-05-23T09:20:16.576Z,94664.19
2023-05-23T09:22:50.703Z,94676.22
2023-05-23T09:25:18.521Z,94671.69
2023-05-23T09:27:48.315Z,94668.97
2023-05-23T09:30:16.125Z,94666.34
2023-05-23T09:32:44.720Z,94664.72
2023-05-23T09:35:14.224Z,94666.72
2023-05-23T09:37:46.125Z,94671.75
2023-05-23T09:40:15.399Z,94662.22
2023-05-23T09:42:53.138Z,94662.66
2023-05-23T09:45:19.999Z,94664.94
2023-05-23T09:47:53.709Z,94653.72
2023-05-23T09:50:21.302Z,94660.81
2023-05-23T09:52:48.587Z,94657.50
2023-05-23T09:55:15.735Z,94656.41
2023-05-23T09:57:43.904Z,94629.41
2023-05-23T10:00:41.528Z,94660.28
2023-05-23T10:03:13.651Z,94656.03
2023-05-23T10:05:51.498Z,94655.28
2023-05-23T10:08:34.234Z,94651.63
2023-05-23T10:11:16.997Z,94653.69
2023-05-23T10:13:45.783Z,94653.72
2023-05-23T10:16:28.958Z,94646.97
2023-05-23T10:18:59.305Z,94640.38
2023-05-23T10:21:38.955Z,94651.22
2023-05-23T10:24:07.436Z,94659.03
2023-05-23T10:26:34.460Z,94649.94
2023-05-23T10:29:01.779Z,94642.94
2023-05-23T10:31:29.786Z,94646.59
2023-05-23T10:34:19.993Z,94630.19
2023-05-23T10:37:06.686Z,94629.31
2023-05-23T10:39:44.483Z,94644.84
2023-05-23T10:42:31.530Z,94658.63
2023-05-23T10:45:15.595Z,94642.88
2023-05-23T10:47:42.501Z,94646.31
2023-05-23T10:50:13.985Z,94657.19
2023-05-23T10:52:41.931Z,94663.13
2023-05-23T10:55:17.893Z,94660.78
2023-05-23T10:57:45.226Z,94658.19
2023-05-23T11:00:16.494Z,94656.00
2023-05-23T11:03:06.190Z,94651.91
2023-05-23T11:05:33.926Z,94651.47
2023-05-23T11:08:14.641Z,94650.47
2023-05-23T11:11:00.309Z,94657.84
2023-05-23T11:13:56.191Z,94650.78
2023-05-23T11:16:31.626Z,94641.28
2023-05-23T11:19:18.805Z,94656.97
2023-05-23T11:21:49.223Z,94664.72
2023-05-23T11:24:16.621Z,94672.47
2023-05-23T11:27:00.393Z,94662.78
2023-05-23T11:29:28.928Z,94658.72
2023-05-23T11:31:56.739Z,94644.94
2023-05-23T11:34:26.416Z,94655.75
2023-05-23T11:36:56.634Z,94648.34
2023-05-23T11:39:24.130Z,94658.38
2023-05-23T11:42:02.717Z,94647.75
2023-05-23T11:44:29.881Z,94672.78
2023-05-23T11:47:04.813Z,94646.19
2023-05-23T11:49:32.703Z,94649.50
2023-05-23T11:52:00.390Z,94658.88
2023-05-23T11:54:27.513Z,94666.22
2023-05-23T11:56:55.678Z,94649.88
2023-05-23T11:59:26.553Z,94651.50
2023-05-23T12:01:54.387Z,94653.06
2023-05-23T12:04:21.830Z,94652.84
2023-05-23T12:06:50.673Z,94660.00
2023-05-23T12:09:17.583Z,94658.13
2023-05-23T12:11:46.012Z,94669.16
2023-05-23T12:14:17.536Z,94661.53
2023-05-23T12:16:46.920Z,94656.47
2023-05-23T12:19:16.637Z,94675.47
2023-05-23T12:21:49.087Z,94657.66
2023-05-23T12:24:17.604Z,94650.75
2023-05-23T12:26:51.356Z,94657.63
2023-05-23T12:29:37.827Z,94666.31
2023-05-23T12:32:08.212Z,94659.63
2023-05-23T12:34:35.218Z,94652.94
2023-05-23T12:39:36.576Z,94649.50
2023-05-23T12:42:09.978Z,94662.56
2023-05-23T12:44:37.087Z,94658.53
2023-05-23T12:47:04.198Z,94664.22
2023-05-23T12:49:31.262Z,94663.81
2023-05-23T12:51:58.265Z,94659.97
2023-05-23T12:54:25.179Z,94656.09
2023-05-23T12:56:51.945Z,94655.91
2023-05-23T12:59:19.546Z,94648.00
2023-05-23T13:01:47.261Z,94640.34
2023-05-23T13:04:16.277Z,94656.59
2023-05-23T13:06:43.138Z,94648.13
2023-05-23T13:09:10.335Z,94653.41
2023-05-23T13:11:38.232Z,94641.75
2023-05-23T13:14:05.037Z,94642.28
2023-05-23T13:16:32.379Z,94637.88
2023-05-23T13:18:59.315Z,94659.38
2023-05-23T13:21:26.494Z,94648.78
2023-05-23T13:23:53.416Z,94672.66
2023-05-23T13:26:20.383Z,94671.69
2023-05-23T13:28:47.195Z,94663.78
2023-05-23T13:31:14.042Z,94673.16
2023-05-23T13:33:42.030Z,94672.94
2023-05-23T13:36:08.853Z,94665.53
2023-05-23T13:38:36.064Z,94667.66
2023-05-23T13:41:02.913Z,94662.50
2023-05-23T13:43:29.893Z,94667.13
2023-05-23T13:45:56.782Z,94681.38
2023-05-23T13:48:24.188Z,94676.28
2023-05-23T13:50:51.317Z,94706.06
2023-05-23T13:53:21.700Z,94693.69
2023-05-23T13:55:49.121Z,94693.22
2023-05-23T13:58:15.949Z,94689.56
2023-05-23T14:00:43.542Z,94684.59
2023-05-23T14:03:12.092Z,94683.81
2023-05-23T14:05:39.085Z,94681.13
2023-05-23T14:08:06.090Z,94681.88
2023-05-23T14:10:35.779Z,94671.63
2023-05-23T14:13:02.583Z,94677.94
2023-05-23T14:15:30.120Z,94691.97
2023-05-23T14:17:58.305Z,94686.94
2023-05-23T14:20:25.545Z,94678.00
2023-05-23T14:22:52.579Z,94680.94
2023-05-23T14:25:19.413Z,94682.41
2023-05-23T14:27:46.270Z,94684.50
2023-05-23T14:30:13.885Z,94685.19
2023-05-23T14:32:41.292Z,94679.56
2023-05-23T14:35:12.091Z,94681.66
2023-05-23T14:37:39.400Z,94686.75
2023-05-23T14:40:07.192Z,94679.53
2023-05-23T14:42:34.079Z,94676.34
2023-05-23T14:45:00.812Z,94668.47
2023-05-23T14:47:27.921Z,94679.94
2023-05-23T14:49:54.955Z,94675.22
2023-05-23T14:52:21.896Z,94673.50
2023-05-23T14:54:48.725Z,94684.09
2023-05-23T14:57:15.646Z,94685.38
2023-05-23T14:59:42.623Z,94679.09
2023-05-23T15:02:09.734Z,94684.75
2023-05-23T15:04:37.591Z,94682.31
2023-05-23T15:07:04.914Z,94680.25
2023-05-23T15:09:32.298Z,94676.56
2023-05-23T15:11:59.608Z,94673.59
2023-05-23T15:14:29.823Z,94677.53
2023-05-23T15:16:57.217Z,94675.72
2023-05-23T15:19:24.860Z,94681.03
2023-05-23T15:21:52.156Z,94678.06
2023-05-23T15:24:19.287Z,94683.84
2023-05-23T15:26:46.203Z,94683.38
2023-05-23T15:29:14.620Z,94692.13
2023-05-23T15:31:41.657Z,94686.59
2023-05-23T15:34:08.634Z,94693.59
2023-05-23T15:36:36.580Z,94690.41
2023-05-23T15:39:05.337Z,94683.56
2023-05-23T15:41:32.260Z,94684.63
2023-05-23T15:43:59.455Z,94686.88
2023-05-23T15:46:26.522Z,94698.59
2023-05-23T15:48:53.576Z,94698.50
2023-05-23T15:51:21.102Z,94697.91
2023-05-23T15:54:00.744Z,94694.66
2023-05-23T15:56:28.414Z,94693.22
2023-05-23T15:58:56.262Z,94694.59
2023-05-23T16:01:23.274Z,94692.91
2023-05-23T16:03:50.633Z,94704.31
2023-05-23T16:06:17.472Z,94708.97
2023-05-23T16:08:44.707Z,94704.47
2023-05-23T16:11:11.697Z,94715.34
2023-05-23T16:13:38.518Z,94717.31
2023-05-23T16:16:05.703Z,94708.69
2023-05-23T16:18:32.685Z,94702.91
2023-05-23T16:20:59.950Z,94710.69
2023-05-23T16:23:27.027Z,94718.06
2023-05-23T16:25:53.975Z,94717.56
2023-05-23T16:28:21.760Z,94719.97
2023-05-23T16:30:50.614Z,94715.09
2023-05-23T16:33:17.596Z,94712.97
2023-05-23T16:35:44.642Z,94709.44
2023-05-23T16:38:11.896Z,94705.47
2023-05-23T16:40:38.789Z,94708.16
2023-05-23T16:43:05.776Z,94704.31
2023-05-23T16:45:32.629Z,94702.00
2023-05-23T16:48:01.058Z,94707.59
2023-05-23T16:50:28.023Z,94704.50
2023-05-23T16:52:55.897Z,94713.91
2023-05-23T16:55:22.868Z,94704.59
2023-05-23T16:57:49.784Z,94708.25
2023-05-23T17:00:17.385Z,94708.16
2023-05-23T17:02:44.337Z,94707.97
2023-05-23T17:05:11.667Z,94702.09
2023-05-23T17:07:38.397Z,94708.56
2023-05-23T17:10:05.994Z,94709.22
2023-05-23T17:12:32.776Z,94709.69
2023-05-23T17:14:59.543Z,94709.75
2023-05-23T17:17:26.306Z,94710.22
2023-05-23T17:19:53.235Z,94699.41
2023-05-23T17:22:20.131Z,94707.91
2023-05-23T17:24:47.159Z,94709.44
2023-05-23T17:27:14.129Z,94711.84
2023-05-23T17:29:41.212Z,94710.44
2023-05-23T17:32:09.098Z,94712.47
2023-05-23T17:34:35.853Z,94720.25
2023-05-23T17:37:02.750Z,94717.56
2023-05-23T17:39:29.608Z,94716.81
2023-05-23T17:41:56.474Z,94719.38
2023-05-23T17:44:23.275Z,94717.75
2023-05-23T17:46:50.275Z,94720.84
2023-05-23T17:49:17.623Z,94726.53
2023-05-23T17:51:44.631Z,94729.16
2023-05-23T17:54:11.556Z,94732.25
2023-05-23T17:56:38.371Z,94729.44
2023-05-23T17:59:05.895Z,94732.88
2023-05-23T18:01:34.267Z,94732.75
2023-05-23T18:04:02.152Z,94738.47
2023-05-23T18:06:29.182Z,94738.78
2023-05-23T18:08:56.746Z,94743.59
2023-05-23T18:11:24.405Z,94741.63
2023-05-23T18:13:51.445Z,94737.75
2023-05-23T18:16:18.221Z,94737.72
2023-05-23T18:21:11.943Z,94749.63
2023-05-23T18:23:38.924Z,94748.97
2023-05-23T18:26:05.728Z,94745.06
2023-05-23T18:28:32.619Z,94755.25
2023-05-23T18:30:59.366Z,94757.22
2023-05-23T18:33:28.038Z,94754.69
2023-05-23T18:35:54.914Z,94765.22
2023-05-23T18:38:22.034Z,94757.03
2023-05-23T18:40:48.986Z,94759.94
2023-05-23T18:43:17.486Z,94758.00
2023-05-23T18:45:44.713Z,94767.03
2023-05-23T18:48:12.185Z,94773.63
2023-05-23T18:50:39.083Z,94786.47
2023-05-23T18:53:06.412Z,94777.66
2023-05-23T18:55:34.065Z,94781.22
2023-05-23T18:58:01.294Z,94783.03
2023-05-23T19:00:28.405Z,94784.91
2023-05-23T19:02:55.397Z,94789.44
2023-05-23T19:05:22.183Z,94787.00
2023-05-23T19:07:48.971Z,94796.88
2023-05-23T19:10:15.994Z,94800.47
2023-05-23T19:12:43.001Z,94814.56
2023-05-23T19:15:10.776Z,94817.00
2023-05-23T19:17:38.714Z,94816.34
2023-05-23T19:20:06.360Z,94817.16
2023-05-23T19:22:47.051Z,94818.03
2023-05-23T19:25:18.415Z,94822.41
2023-05-23T19:27:45.558Z,94823.16
2023-05-23T19:30:12.583Z,94834.88
2023-05-23T19:32:39.378Z,94827.44
2023-05-23T19:35:06.766Z,94832.16
2023-05-23T19:37:33.585Z,94824.19
2023-05-23T19:40:01.908Z,94826.78
2023-05-23T19:42:28.825Z,94822.78
2023-05-23T19:44:55.668Z,94827.75
2023-05-23T19:47:22.462Z,94825.88
2023-05-23T19:49:49.334Z,94824.16
2023-05-23T19:52:16.153Z,94831.03
2023-05-23T19:54:42.892Z,94838.16
2023-05-23T19:57:09.711Z,94830.31
2023-05-23T19:59:36.571Z,94844.63
2023-05-23T20:02:03.564Z,94854.00
2023-05-23T20:04:30.558Z,94845.91
2023-05-23T20:06:57.847Z,94853.56
2023-05-23T20:09:24.689Z,94861.06
2023-05-23T20:11:51.477Z,94866.41
2023-05-23T20:14:18.318Z,94861.03
2023-05-23T20:16:45.086Z,94870.59
2023-05-23T20:19:11.884Z,94867.28
2023-05-23T20:21:38.825Z,94863.75
2023-05-23T20:24:05.796Z,94863.53
2023-05-23T20:26:32.652Z,94860.59
2023-05-23T20:28:59.971Z,94861.91
2023-05-23T20:31:26.860Z,94867.38
2023-05-23T20:33:53.724Z,94876.66
2023-05-23T20:36:21.086Z,94875.34
2023-05-23T20:38:47.982Z,94876.53
2023-05-23T20:41:14.991Z,94878.31
2023-05-23T20:43:44.264Z,94877.66
2023-05-23T20:46:11.786Z,94880.00
2023-05-23T20:48:38.736Z,94878.69
2023-05-23T20:51:07.515Z,94879.63
2023-05-23T20:53:34.983Z,94875.88
2023-05-23T20:56:03.163Z,94880.06
2023-05-23T20:58:29.993Z,94892.69
2023-05-23T21:00:57.857Z,94887.28
2023-05-23T21:03:24.880Z,94882.16
2023-05-23T21:05:51.730Z,94889.41
2023-05-23T21:08:18.528Z,94895.22
2023-05-23T21:10:49.346Z,94894.78
2023-05-23T21:13:17.796Z,94893.00
2023-05-23T21:15:44.867Z,94895.63
2023-05-23T21:18:11.979Z,94888.50
2023-05-23T21:20:38.892Z,94889.53
2023-05-23T21:23:05.663Z,94890.78
2023-05-23T21:25:32.805Z,94889.16
2023-05-23T21:28:00.027Z,94895.19
2023-05-23T21:30:26.820Z,94890.44
2023-05-23T21:32:53.662Z,94901.47
2023-05-23T21:35:20.456Z,94902.41
2023-05-23T21:37:47.171Z,94902.84
2023-05-23T21:40:13.932Z,94899.72
2023-05-23T21:42:40.746Z,94906.53
2023-05-23T21:45:08.412Z,94903.69
2023-05-23T21:47:35.267Z,94905.94
2023-05-23T21:50:04.219Z,94901.16
2023-05-23T21:52:31.747Z,94906.41
2023-05-23T21:54:58.724Z,94911.31
2023-05-23T21:57:25.577Z,94913.09
2023-05-23T21:59:52.319Z,94917.44
2023-05-23T22:02:19.089Z,94917.16
2023-05-23T22:04:46.274Z,94924.94
2023-05-23T22:07:13.092Z,94920.72
2023-05-23T22:09:39.873Z,94918.03
2023-05-23T22:12:06.877Z,94925.16
2023-05-23T22:14:33.764Z,94928.88
2023-05-23T22:17:02.407Z,94934.13
2023-05-23T22:19:30.391Z,94927.56
2023-05-23T22:21:57.321Z,94932.72
2023-05-23T22:24:25.301Z,94934.75
2023-05-23T22:26:52.232Z,94922.28
2023-05-23T22:29:19.007Z,94912.13
2023-05-23T22:31:46.997Z,94912.16
2023-05-23T22:34:14.106Z,94921.41
2023-05-23T22:36:40.953Z,94924.34
2023-05-23T22:39:08.217Z,94922.53
2023-05-23T22:41:36.144Z,94917.63
2023-05-23T22:44:03.429Z,94916.06
2023-05-23T22:46:30.633Z,94917.34
2023-05-23T22:48:58.222Z,94920.41
2023-05-23T22:51:24.986Z,94922.91
2023-05-23T22:53:52.821Z,94920.59
2023-05-23T22:56:19.609Z,94918.22
2023-05-23T22:58:46.499Z,94915.34
2023-05-23T23:01:13.364Z,94912.19
2023-05-23T23:03:40.233Z,94916.78
2023-05-23T23:06:07.646Z,94911.63
2023-05-23T23:08:34.534Z,94916.88
2023-05-23T23:11:01.657Z,94915.06
2023-05-23T23:13:28.489Z,94909.75
2023-05-23T23:15:55.597Z,94912.13
2023-05-23T23:18:22.337Z,94910.56
2023-05-23T23:20:49.228Z,94907.72
2023-05-23T23:23:16.193Z,94911.22
2023-05-23T23:25:43.122Z,94910.09
2023-05-23T23:28:09.890Z,94909.69
2023-05-23T23:30:36.825Z,94906.34
2023-05-23T23:33:04.000Z,94908.69
2023-05-23T23:35:31.077Z,94899.53
2023-05-23T23:37:57.790Z,94900.59
2023-05-23T23:40:24.549Z,94891.22
2023-05-23T23:42:51.327Z,94893.41
2023-05-23T23:45:18.296Z,94898.91
2023-05-23T23:47:46.262Z,94898.47
2023-05-23T23:50:16.148Z,94899.63
2023-05-23T23:52:43.021Z,94897.19
2023-05-23T23:55:10.019Z,94897.31
2023-05-23T23:57:36.772Z,94896.78
